sensor_id;sensor_type;location;lat;lon;timestamp;P1;durP1;ratioP1;P2;durP2;ratioP2
9722;SDS011;4900;49.306;8.500;2022-12-18T00:02:41;41.67;;;20.03;;
9722;SDS011;4900;49.306;8.500;2022-12-18T00:05:48;41.47;;;18.20;;
9722;SDS011;4900;49.306;8.500;2022-12-18T00:08:52;40.10;;;18.00;;
9722;SDS011;4900;49.306;8.500;2022-12-18T00:11:55;39.27;;;18.03;;
9722;SDS011;4900;49.306;8.500;2022-12-18T00:14:58;39.70;;;18.77;;
9722;SDS011;4900;49.306;8.500;2022-12-18T00:18:02;42.17;;;18.87;;
9722;SDS011;4900;49.306;8.500;2022-12-18T00:21:06;38.90;;;18.93;;
9722;SDS011;4900;49.306;8.500;2022-12-18T00:24:10;38.20;;;17.83;;
9722;SDS011;4900;49.306;8.500;2022-12-18T00:27:14;37.80;;;17.27;;
9722;SDS011;4900;49.306;8.500;2022-12-18T00:30:17;42.97;;;19.17;;
9722;SDS011;4900;49.306;8.500;2022-12-18T00:33:21;33.87;;;17.53;;
9722;SDS011;4900;49.306;8.500;2022-12-18T00:36:25;37.37;;;18.40;;
9722;SDS011;4900;49.306;8.500;2022-12-18T00:39:32;38.77;;;16.90;;
9722;SDS011;4900;49.306;8.500;2022-12-18T00:42:36;38.13;;;17.57;;
9722;SDS011;4900;49.306;8.500;2022-12-18T00:45:57;42.73;;;19.03;;
9722;SDS011;4900;49.306;8.500;2022-12-18T00:49:01;35.80;;;16.57;;
9722;SDS011;4900;49.306;8.500;2022-12-18T00:52:04;35.90;;;17.60;;
9722;SDS011;4900;49.306;8.500;2022-12-18T00:55:07;37.90;;;16.90;;
9722;SDS011;4900;49.306;8.500;2022-12-18T00:58:12;36.97;;;16.63;;
9722;SDS011;4900;49.306;8.500;2022-12-18T01:01:17;41.47;;;18.47;;
9722;SDS011;4900;49.306;8.500;2022-12-18T01:04:21;39.67;;;17.47;;
9722;SDS011;4900;49.306;8.500;2022-12-18T01:07:23;36.53;;;17.20;;
9722;SDS011;4900;49.306;8.500;2022-12-18T01:10:26;37.03;;;17.03;;
9722;SDS011;4900;49.306;8.500;2022-12-18T01:13:29;38.07;;;16.73;;
9722;SDS011;4900;49.306;8.500;2022-12-18T01:16:32;33.30;;;16.20;;
9722;SDS011;4900;49.306;8.500;2022-12-18T01:19:36;40.00;;;18.23;;
9722;SDS011;4900;49.306;8.500;2022-12-18T01:22:39;39.07;;;18.20;;
9722;SDS011;4900;49.306;8.500;2022-12-18T01:25:42;42.23;;;17.47;;
9722;SDS011;4900;49.306;8.500;2022-12-18T01:28:46;37.20;;;17.43;;
9722;SDS011;4900;49.306;8.500;2022-12-18T01:31:48;38.40;;;18.07;;
9722;SDS011;4900;49.306;8.500;2022-12-18T01:34:52;35.57;;;17.00;;
9722;SDS011;4900;49.306;8.500;2022-12-18T01:37:55;43.93;;;19.07;;
9722;SDS011;4900;49.306;8.500;2022-12-18T01:40:59;36.17;;;17.23;;
9722;SDS011;4900;49.306;8.500;2022-12-18T01:44:46;35.07;;;16.00;;
9722;SDS011;4900;49.306;8.500;2022-12-18T01:47:49;37.90;;;17.07;;
9722;SDS011;4900;49.306;8.500;2022-12-18T01:50:56;34.73;;;16.20;;
9722;SDS011;4900;49.306;8.500;2022-12-18T01:53:59;36.57;;;17.00;;
9722;SDS011;4900;49.306;8.500;2022-12-18T01:57:02;37.10;;;16.07;;
9722;SDS011;4900;49.306;8.500;2022-12-18T02:00:11;33.77;;;15.53;;
9722;SDS011;4900;49.306;8.500;2022-12-18T02:03:22;32.80;;;15.33;;
9722;SDS011;4900;49.306;8.500;2022-12-18T02:06:28;31.20;;;15.37;;
9722;SDS011;4900;49.306;8.500;2022-12-18T02:09:39;33.50;;;15.93;;
9722;SDS011;4900;49.306;8.500;2022-12-18T02:19:31;38.73;;;18.43;;
9722;SDS011;4900;49.306;8.500;2022-12-18T02:26:43;36.57;;;15.37;;
9722;SDS011;4900;49.306;8.500;2022-12-18T02:29:51;37.80;;;17.40;;
9722;SDS011;4900;49.306;8.500;2022-12-18T02:32:57;36.23;;;15.63;;
9722;SDS011;4900;49.306;8.500;2022-12-18T02:36:02;32.37;;;15.60;;
9722;SDS011;4900;49.306;8.500;2022-12-18T02:39:07;35.80;;;17.47;;
9722;SDS011;4900;49.306;8.500;2022-12-18T02:42:13;39.33;;;17.80;;
9722;SDS011;4900;49.306;8.500;2022-12-18T02:45:17;40.30;;;18.47;;
9722;SDS011;4900;49.306;8.500;2022-12-18T02:48:22;45.53;;;20.30;;
9722;SDS011;4900;49.306;8.500;2022-12-18T02:51:33;42.67;;;21.93;;
9722;SDS011;4900;49.306;8.500;2022-12-18T02:58:25;34.93;;;16.43;;
9722;SDS011;4900;49.306;8.500;2022-12-18T03:05:25;33.23;;;16.03;;
9722;SDS011;4900;49.306;8.500;2022-12-18T03:08:38;40.03;;;19.13;;
9722;SDS011;4900;49.306;8.500;2022-12-18T03:11:46;41.90;;;17.00;;
9722;SDS011;4900;49.306;8.500;2022-12-18T03:15:22;38.03;;;17.43;;
9722;SDS011;4900;49.306;8.500;2022-12-18T03:18:33;33.67;;;16.23;;
9722;SDS011;4900;49.306;8.500;2022-12-18T03:21:58;38.30;;;17.10;;
9722;SDS011;4900;49.306;8.500;2022-12-18T03:25:06;34.90;;;16.43;;
9722;SDS011;4900;49.306;8.500;2022-12-18T03:28:14;38.03;;;17.87;;
9722;SDS011;4900;49.306;8.500;2022-12-18T03:31:23;34.80;;;16.10;;
9722;SDS011;4900;49.306;8.500;2022-12-18T03:34:30;42.03;;;18.57;;
9722;SDS011;4900;49.306;8.500;2022-12-18T03:37:36;37.50;;;16.90;;
9722;SDS011;4900;49.306;8.500;2022-12-18T03:43:57;36.63;;;17.80;;
9722;SDS011;4900;49.306;8.500;2022-12-18T03:50:19;35.90;;;17.00;;
9722;SDS011;4900;49.306;8.500;2022-12-18T03:53:36;33.90;;;17.27;;
9722;SDS011;4900;49.306;8.500;2022-12-18T03:56:46;39.77;;;17.07;;
9722;SDS011;4900;49.306;8.500;2022-12-18T04:00:00;34.40;;;16.40;;
9722;SDS011;4900;49.306;8.500;2022-12-18T04:03:11;33.10;;;15.70;;
9722;SDS011;4900;49.306;8.500;2022-12-18T04:06:16;37.53;;;19.00;;
9722;SDS011;4900;49.306;8.500;2022-12-18T04:09:20;43.00;;;20.03;;
9722;SDS011;4900;49.306;8.500;2022-12-18T04:12:24;40.70;;;19.33;;
9722;SDS011;4900;49.306;8.500;2022-12-18T04:15:28;40.53;;;18.83;;
9722;SDS011;4900;49.306;8.500;2022-12-18T04:18:31;36.57;;;18.27;;
9722;SDS011;4900;49.306;8.500;2022-12-18T04:21:34;35.27;;;15.83;;
9722;SDS011;4900;49.306;8.500;2022-12-18T04:24:37;35.03;;;16.77;;
9722;SDS011;4900;49.306;8.500;2022-12-18T04:27:40;39.77;;;16.47;;
9722;SDS011;4900;49.306;8.500;2022-12-18T04:30:43;38.37;;;17.03;;
9722;SDS011;4900;49.306;8.500;2022-12-18T04:33:46;37.83;;;15.83;;
9722;SDS011;4900;49.306;8.500;2022-12-18T04:36:49;36.90;;;17.70;;
9722;SDS011;4900;49.306;8.500;2022-12-18T04:39:52;37.97;;;17.20;;
9722;SDS011;4900;49.306;8.500;2022-12-18T04:42:54;42.13;;;18.47;;
9722;SDS011;4900;49.306;8.500;2022-12-18T04:46:04;37.50;;;17.67;;
9722;SDS011;4900;49.306;8.500;2022-12-18T04:49:09;37.57;;;17.47;;
9722;SDS011;4900;49.306;8.500;2022-12-18T04:52:13;40.13;;;16.60;;
9722;SDS011;4900;49.306;8.500;2022-12-18T04:55:16;39.57;;;18.50;;
9722;SDS011;4900;49.306;8.500;2022-12-18T04:58:19;35.90;;;17.27;;
9722;SDS011;4900;49.306;8.500;2022-12-18T05:01:22;38.30;;;17.17;;
9722;SDS011;4900;49.306;8.500;2022-12-18T05:04:25;37.67;;;17.80;;
9722;SDS011;4900;49.306;8.500;2022-12-18T05:07:28;35.80;;;16.70;;
9722;SDS011;4900;49.306;8.500;2022-12-18T05:10:32;35.97;;;17.70;;
9722;SDS011;4900;49.306;8.500;2022-12-18T05:13:35;34.63;;;17.07;;
9722;SDS011;4900;49.306;8.500;2022-12-18T05:16:38;42.73;;;17.80;;
9722;SDS011;4900;49.306;8.500;2022-12-18T05:19:41;38.80;;;17.07;;
9722;SDS011;4900;49.306;8.500;2022-12-18T05:22:44;44.53;;;19.10;;
9722;SDS011;4900;49.306;8.500;2022-12-18T05:25:57;35.63;;;17.30;;
9722;SDS011;4900;49.306;8.500;2022-12-18T05:29:03;34.70;;;15.90;;
9722;SDS011;4900;49.306;8.500;2022-12-18T05:32:06;36.17;;;16.53;;
9722;SDS011;4900;49.306;8.500;2022-12-18T05:35:10;34.37;;;15.63;;
9722;SDS011;4900;49.306;8.500;2022-12-18T05:38:13;38.13;;;17.10;;
9722;SDS011;4900;49.306;8.500;2022-12-18T05:41:16;30.90;;;15.43;;
9722;SDS011;4900;49.306;8.500;2022-12-18T05:44:19;30.77;;;14.90;;
9722;SDS011;4900;49.306;8.500;2022-12-18T05:47:22;32.60;;;15.80;;
9722;SDS011;4900;49.306;8.500;2022-12-18T05:50:25;33.67;;;15.17;;
9722;SDS011;4900;49.306;8.500;2022-12-18T05:53:28;37.57;;;15.93;;
9722;SDS011;4900;49.306;8.500;2022-12-18T05:56:31;33.70;;;15.87;;
9722;SDS011;4900;49.306;8.500;2022-12-18T05:59:34;29.83;;;15.10;;
9722;SDS011;4900;49.306;8.500;2022-12-18T06:02:37;33.70;;;15.57;;
9722;SDS011;4900;49.306;8.500;2022-12-18T06:05:42;28.80;;;14.00;;
9722;SDS011;4900;49.306;8.500;2022-12-18T06:08:46;30.60;;;14.83;;
9722;SDS011;4900;49.306;8.500;2022-12-18T06:11:51;34.90;;;16.23;;
9722;SDS011;4900;49.306;8.500;2022-12-18T06:14:54;34.17;;;15.10;;
9722;SDS011;4900;49.306;8.500;2022-12-18T06:17:57;26.93;;;14.77;;
9722;SDS011;4900;49.306;8.500;2022-12-18T06:21:00;33.33;;;14.93;;
9722;SDS011;4900;49.306;8.500;2022-12-18T06:24:03;31.00;;;14.13;;
9722;SDS011;4900;49.306;8.500;2022-12-18T06:27:06;32.77;;;15.13;;
9722;SDS011;4900;49.306;8.500;2022-12-18T06:30:09;33.23;;;14.80;;
9722;SDS011;4900;49.306;8.500;2022-12-18T06:33:13;31.40;;;14.30;;
9722;SDS011;4900;49.306;8.500;2022-12-18T06:36:17;31.77;;;14.97;;
9722;SDS011;4900;49.306;8.500;2022-12-18T06:39:20;30.77;;;14.80;;
9722;SDS011;4900;49.306;8.500;2022-12-18T06:42:23;28.00;;;14.57;;
9722;SDS011;4900;49.306;8.500;2022-12-18T06:45:27;28.90;;;13.47;;
9722;SDS011;4900;49.306;8.500;2022-12-18T06:48:29;27.93;;;14.67;;
9722;SDS011;4900;49.306;8.500;2022-12-18T06:51:33;31.80;;;16.13;;
9722;SDS011;4900;49.306;8.500;2022-12-18T06:54:36;37.70;;;18.70;;
9722;SDS011;4900;49.306;8.500;2022-12-18T06:57:39;32.60;;;16.03;;
9722;SDS011;4900;49.306;8.500;2022-12-18T07:00:42;36.53;;;18.27;;
9722;SDS011;4900;49.306;8.500;2022-12-18T07:03:46;36.97;;;18.57;;
9722;SDS011;4900;49.306;8.500;2022-12-18T07:06:49;40.57;;;19.37;;
9722;SDS011;4900;49.306;8.500;2022-12-18T07:09:52;40.43;;;19.77;;
9722;SDS011;4900;49.306;8.500;2022-12-18T07:12:55;35.93;;;17.50;;
9722;SDS011;4900;49.306;8.500;2022-12-18T07:16:09;40.93;;;20.03;;
9722;SDS011;4900;49.306;8.500;2022-12-18T07:19:13;38.83;;;20.70;;
9722;SDS011;4900;49.306;8.500;2022-12-18T07:22:16;42.53;;;21.27;;
9722;SDS011;4900;49.306;8.500;2022-12-18T07:25:19;39.03;;;21.37;;
9722;SDS011;4900;49.306;8.500;2022-12-18T07:28:22;41.43;;;20.90;;
9722;SDS011;4900;49.306;8.500;2022-12-18T07:31:26;40.23;;;20.20;;
9722;SDS011;4900;49.306;8.500;2022-12-18T07:34:30;35.40;;;19.13;;
9722;SDS011;4900;49.306;8.500;2022-12-18T07:37:33;38.50;;;20.10;;
9722;SDS011;4900;49.306;8.500;2022-12-18T07:40:36;35.63;;;18.00;;
9722;SDS011;4900;49.306;8.500;2022-12-18T07:43:39;38.90;;;20.37;;
9722;SDS011;4900;49.306;8.500;2022-12-18T07:46:43;39.57;;;19.73;;
9722;SDS011;4900;49.306;8.500;2022-12-18T07:49:46;42.07;;;22.83;;
9722;SDS011;4900;49.306;8.500;2022-12-18T07:52:49;35.43;;;19.23;;
9722;SDS011;4900;49.306;8.500;2022-12-18T07:55:56;40.50;;;21.40;;
9722;SDS011;4900;49.306;8.500;2022-12-18T07:59:03;34.63;;;19.27;;
9722;SDS011;4900;49.306;8.500;2022-12-18T08:02:06;39.30;;;20.03;;
9722;SDS011;4900;49.306;8.500;2022-12-18T08:05:09;40.70;;;20.50;;
9722;SDS011;4900;49.306;8.500;2022-12-18T08:08:11;37.10;;;19.00;;
9722;SDS011;4900;49.306;8.500;2022-12-18T08:11:16;38.53;;;19.30;;
9722;SDS011;4900;49.306;8.500;2022-12-18T08:14:19;41.07;;;20.17;;
9722;SDS011;4900;49.306;8.500;2022-12-18T08:17:22;35.07;;;18.20;;
9722;SDS011;4900;49.306;8.500;2022-12-18T08:20:25;38.23;;;19.87;;
9722;SDS011;4900;49.306;8.500;2022-12-18T08:23:28;33.93;;;18.43;;
9722;SDS011;4900;49.306;8.500;2022-12-18T08:26:33;42.43;;;19.57;;
9722;SDS011;4900;49.306;8.500;2022-12-18T08:29:36;40.20;;;20.27;;
9722;SDS011;4900;49.306;8.500;2022-12-18T08:32:38;36.40;;;20.23;;
9722;SDS011;4900;49.306;8.500;2022-12-18T08:35:41;40.27;;;21.33;;
9722;SDS011;4900;49.306;8.500;2022-12-18T08:38:45;44.90;;;23.83;;
9722;SDS011;4900;49.306;8.500;2022-12-18T08:41:48;48.33;;;24.60;;
9722;SDS011;4900;49.306;8.500;2022-12-18T08:45:11;38.73;;;22.07;;
9722;SDS011;4900;49.306;8.500;2022-12-18T08:48:15;38.23;;;19.47;;
9722;SDS011;4900;49.306;8.500;2022-12-18T08:51:18;40.03;;;21.67;;
9722;SDS011;4900;49.306;8.500;2022-12-18T08:54:22;43.17;;;22.33;;
9722;SDS011;4900;49.306;8.500;2022-12-18T08:57:25;39.43;;;18.33;;
9722;SDS011;4900;49.306;8.500;2022-12-18T09:00:28;38.10;;;20.10;;
9722;SDS011;4900;49.306;8.500;2022-12-18T09:03:32;38.73;;;21.60;;
9722;SDS011;4900;49.306;8.500;2022-12-18T09:06:35;47.40;;;23.20;;
9722;SDS011;4900;49.306;8.500;2022-12-18T09:09:39;47.77;;;23.30;;
9722;SDS011;4900;49.306;8.500;2022-12-18T09:12:43;43.90;;;21.07;;
9722;SDS011;4900;49.306;8.500;2022-12-18T09:15:50;44.97;;;22.80;;
9722;SDS011;4900;49.306;8.500;2022-12-18T09:18:55;42.27;;;21.27;;
9722;SDS011;4900;49.306;8.500;2022-12-18T09:22:02;39.00;;;20.13;;
9722;SDS011;4900;49.306;8.500;2022-12-18T09:25:05;47.73;;;22.90;;
9722;SDS011;4900;49.306;8.500;2022-12-18T09:28:11;38.73;;;21.30;;
9722;SDS011;4900;49.306;8.500;2022-12-18T09:31:17;41.23;;;20.47;;
9722;SDS011;4900;49.306;8.500;2022-12-18T09:34:24;43.80;;;20.80;;
9722;SDS011;4900;49.306;8.500;2022-12-18T09:37:27;40.47;;;20.23;;
9722;SDS011;4900;49.306;8.500;2022-12-18T09:40:33;41.13;;;21.63;;
9722;SDS011;4900;49.306;8.500;2022-12-18T09:43:46;39.50;;;20.80;;
9722;SDS011;4900;49.306;8.500;2022-12-18T09:47:12;42.57;;;20.90;;
9722;SDS011;4900;49.306;8.500;2022-12-18T09:50:34;37.60;;;20.70;;
9722;SDS011;4900;49.306;8.500;2022-12-18T09:53:39;41.17;;;21.27;;
9722;SDS011;4900;49.306;8.500;2022-12-18T09:56:45;39.83;;;19.43;;
9722;SDS011;4900;49.306;8.500;2022-12-18T09:59:53;39.87;;;20.53;;
9722;SDS011;4900;49.306;8.500;2022-12-18T10:03:01;41.97;;;21.27;;
9722;SDS011;4900;49.306;8.500;2022-12-18T10:06:13;42.00;;;20.97;;
9722;SDS011;4900;49.306;8.500;2022-12-18T10:09:37;45.73;;;22.67;;
9722;SDS011;4900;49.306;8.500;2022-12-18T10:13:12;45.03;;;21.70;;
9722;SDS011;4900;49.306;8.500;2022-12-18T10:19:45;50.60;;;24.53;;
9722;SDS011;4900;49.306;8.500;2022-12-18T10:23:04;43.87;;;22.03;;
9722;SDS011;4900;49.306;8.500;2022-12-18T10:26:23;42.77;;;19.13;;
9722;SDS011;4900;49.306;8.500;2022-12-18T10:29:27;40.97;;;21.87;;
9722;SDS011;4900;49.306;8.500;2022-12-18T10:32:30;40.17;;;21.77;;
9722;SDS011;4900;49.306;8.500;2022-12-18T10:35:34;41.80;;;22.40;;
9722;SDS011;4900;49.306;8.500;2022-12-18T10:38:40;44.67;;;22.43;;
9722;SDS011;4900;49.306;8.500;2022-12-18T10:42:14;39.53;;;19.43;;
9722;SDS011;4900;49.306;8.500;2022-12-18T10:45:19;42.13;;;20.83;;
9722;SDS011;4900;49.306;8.500;2022-12-18T10:48:23;41.07;;;20.87;;
9722;SDS011;4900;49.306;8.500;2022-12-18T10:54:37;46.10;;;22.97;;
9722;SDS011;4900;49.306;8.500;2022-12-18T10:57:41;39.97;;;20.83;;
9722;SDS011;4900;49.306;8.500;2022-12-18T11:00:45;43.87;;;21.47;;
9722;SDS011;4900;49.306;8.500;2022-12-18T11:04:09;39.73;;;20.10;;
9722;SDS011;4900;49.306;8.500;2022-12-18T11:07:12;38.90;;;21.00;;
9722;SDS011;4900;49.306;8.500;2022-12-18T11:10:16;41.70;;;20.60;;
9722;SDS011;4900;49.306;8.500;2022-12-18T11:13:21;45.20;;;21.87;;
9722;SDS011;4900;49.306;8.500;2022-12-18T11:16:26;43.17;;;21.07;;
9722;SDS011;4900;49.306;8.500;2022-12-18T11:19:33;41.87;;;22.03;;
9722;SDS011;4900;49.306;8.500;2022-12-18T11:22:38;35.17;;;19.43;;
9722;SDS011;4900;49.306;8.500;2022-12-18T11:25:50;39.63;;;19.63;;
9722;SDS011;4900;49.306;8.500;2022-12-18T11:29:12;41.37;;;20.77;;
9722;SDS011;4900;49.306;8.500;2022-12-18T11:38:52;43.00;;;22.37;;
9722;SDS011;4900;49.306;8.500;2022-12-18T11:42:20;41.47;;;21.20;;
9722;SDS011;4900;49.306;8.500;2022-12-18T11:45:29;41.40;;;21.07;;
9722;SDS011;4900;49.306;8.500;2022-12-18T11:52:39;38.67;;;19.63;;
9722;SDS011;4900;49.306;8.500;2022-12-18T12:03:01;38.80;;;19.57;;
9722;SDS011;4900;49.306;8.500;2022-12-18T12:22:40;37.70;;;19.80;;
9722;SDS011;4900;49.306;8.500;2022-12-18T12:26:09;39.50;;;20.97;;
9722;SDS011;4900;49.306;8.500;2022-12-18T12:39:40;36.03;;;17.97;;
9722;SDS011;4900;49.306;8.500;2022-12-18T12:42:57;38.37;;;18.87;;
9722;SDS011;4900;49.306;8.500;2022-12-18T12:46:16;40.43;;;18.43;;
9722;SDS011;4900;49.306;8.500;2022-12-18T12:49:29;40.53;;;19.80;;
9722;SDS011;4900;49.306;8.500;2022-12-18T12:52:39;37.70;;;20.17;;
9722;SDS011;4900;49.306;8.500;2022-12-18T12:55:46;35.53;;;19.90;;
9722;SDS011;4900;49.306;8.500;2022-12-18T13:08:56;39.83;;;21.30;;
9722;SDS011;4900;49.306;8.500;2022-12-18T13:12:02;46.07;;;22.90;;
9722;SDS011;4900;49.306;8.500;2022-12-18T13:18:48;41.27;;;21.40;;
9722;SDS011;4900;49.306;8.500;2022-12-18T13:21:53;41.37;;;20.33;;
9722;SDS011;4900;49.306;8.500;2022-12-18T13:25:00;38.97;;;20.37;;
9722;SDS011;4900;49.306;8.500;2022-12-18T13:28:10;42.60;;;20.63;;
9722;SDS011;4900;49.306;8.500;2022-12-18T13:34:37;36.90;;;20.00;;
9722;SDS011;4900;49.306;8.500;2022-12-18T13:37:44;36.80;;;19.33;;
9722;SDS011;4900;49.306;8.500;2022-12-18T13:40:56;38.17;;;19.07;;
9722;SDS011;4900;49.306;8.500;2022-12-18T13:44:11;36.60;;;20.73;;
9722;SDS011;4900;49.306;8.500;2022-12-18T13:47:34;39.40;;;20.57;;
9722;SDS011;4900;49.306;8.500;2022-12-18T13:50:42;38.30;;;20.20;;
9722;SDS011;4900;49.306;8.500;2022-12-18T14:00:32;38.87;;;20.00;;
9722;SDS011;4900;49.306;8.500;2022-12-18T14:03:35;37.03;;;19.67;;
9722;SDS011;4900;49.306;8.500;2022-12-18T14:06:38;36.73;;;19.53;;
9722;SDS011;4900;49.306;8.500;2022-12-18T14:09:43;36.60;;;19.10;;
9722;SDS011;4900;49.306;8.500;2022-12-18T14:12:48;39.67;;;20.60;;
9722;SDS011;4900;49.306;8.500;2022-12-18T14:16:03;34.27;;;19.03;;
9722;SDS011;4900;49.306;8.500;2022-12-18T14:19:10;38.07;;;18.93;;
9722;SDS011;4900;49.306;8.500;2022-12-18T14:22:18;36.97;;;19.60;;
9722;SDS011;4900;49.306;8.500;2022-12-18T14:25:24;36.67;;;19.03;;
9722;SDS011;4900;49.306;8.500;2022-12-18T14:28:29;39.70;;;19.63;;
9722;SDS011;4900;49.306;8.500;2022-12-18T14:31:34;36.20;;;18.30;;
9722;SDS011;4900;49.306;8.500;2022-12-18T14:34:37;39.60;;;20.00;;
9722;SDS011;4900;49.306;8.500;2022-12-18T14:37:41;39.77;;;21.20;;
9722;SDS011;4900;49.306;8.500;2022-12-18T14:40:44;39.50;;;20.27;;
9722;SDS011;4900;49.306;8.500;2022-12-18T14:43:48;38.90;;;21.17;;
9722;SDS011;4900;49.306;8.500;2022-12-18T14:46:53;40.57;;;20.80;;
9722;SDS011;4900;49.306;8.500;2022-12-18T14:49:57;35.17;;;19.63;;
9722;SDS011;4900;49.306;8.500;2022-12-18T14:53:00;36.47;;;18.63;;
9722;SDS011;4900;49.306;8.500;2022-12-18T14:56:11;40.63;;;20.43;;
9722;SDS011;4900;49.306;8.500;2022-12-18T14:59:19;36.87;;;18.93;;
9722;SDS011;4900;49.306;8.500;2022-12-18T15:02:25;37.80;;;20.40;;
9722;SDS011;4900;49.306;8.500;2022-12-18T15:05:30;37.63;;;18.87;;
9722;SDS011;4900;49.306;8.500;2022-12-18T15:08:35;39.57;;;18.57;;
9722;SDS011;4900;49.306;8.500;2022-12-18T15:14:43;41.63;;;20.93;;
9722;SDS011;4900;49.306;8.500;2022-12-18T15:17:46;33.97;;;18.67;;
9722;SDS011;4900;49.306;8.500;2022-12-18T15:20:53;39.93;;;18.60;;
9722;SDS011;4900;49.306;8.500;2022-12-18T15:23:58;37.50;;;18.87;;
9722;SDS011;4900;49.306;8.500;2022-12-18T15:27:02;43.27;;;20.73;;
9722;SDS011;4900;49.306;8.500;2022-12-18T15:33:23;41.23;;;20.70;;
9722;SDS011;4900;49.306;8.500;2022-12-18T15:36:28;39.00;;;18.67;;
9722;SDS011;4900;49.306;8.500;2022-12-18T15:39:32;39.80;;;20.00;;
9722;SDS011;4900;49.306;8.500;2022-12-18T15:42:37;37.67;;;19.00;;
9722;SDS011;4900;49.306;8.500;2022-12-18T15:46:11;38.57;;;19.63;;
9722;SDS011;4900;49.306;8.500;2022-12-18T15:49:19;43.63;;;20.70;;
9722;SDS011;4900;49.306;8.500;2022-12-18T15:52:23;41.60;;;19.97;;
9722;SDS011;4900;49.306;8.500;2022-12-18T15:55:28;42.13;;;19.30;;
9722;SDS011;4900;49.306;8.500;2022-12-18T15:58:54;35.93;;;18.47;;
9722;SDS011;4900;49.306;8.500;2022-12-18T16:01:58;43.37;;;21.67;;
9722;SDS011;4900;49.306;8.500;2022-12-18T16:05:01;40.63;;;19.83;;
9722;SDS011;4900;49.306;8.500;2022-12-18T16:08:04;38.17;;;18.90;;
9722;SDS011;4900;49.306;8.500;2022-12-18T16:11:10;39.80;;;18.83;;
9722;SDS011;4900;49.306;8.500;2022-12-18T16:14:46;39.33;;;17.87;;
9722;SDS011;4900;49.306;8.500;2022-12-18T16:17:49;37.20;;;18.53;;
9722;SDS011;4900;49.306;8.500;2022-12-18T16:20:52;39.83;;;19.93;;
9722;SDS011;4900;49.306;8.500;2022-12-18T16:23:55;45.87;;;21.50;;
9722;SDS011;4900;49.306;8.500;2022-12-18T16:26:59;45.10;;;21.40;;
9722;SDS011;4900;49.306;8.500;2022-12-18T16:30:03;41.13;;;19.57;;
9722;SDS011;4900;49.306;8.500;2022-12-18T16:33:08;35.63;;;17.47;;
9722;SDS011;4900;49.306;8.500;2022-12-18T16:36:13;38.90;;;18.77;;
9722;SDS011;4900;49.306;8.500;2022-12-18T16:39:16;41.53;;;19.23;;
9722;SDS011;4900;49.306;8.500;2022-12-18T16:42:20;40.17;;;20.07;;
9722;SDS011;4900;49.306;8.500;2022-12-18T16:45:26;49.60;;;21.53;;
9722;SDS011;4900;49.306;8.500;2022-12-18T16:48:35;41.07;;;19.57;;
9722;SDS011;4900;49.306;8.500;2022-12-18T16:51:38;39.47;;;19.13;;
9722;SDS011;4900;49.306;8.500;2022-12-18T16:54:42;40.30;;;19.70;;
9722;SDS011;4900;49.306;8.500;2022-12-18T16:57:45;45.20;;;21.13;;
9722;SDS011;4900;49.306;8.500;2022-12-18T17:00:49;39.73;;;19.73;;
9722;SDS011;4900;49.306;8.500;2022-12-18T17:03:53;41.30;;;20.20;;
9722;SDS011;4900;49.306;8.500;2022-12-18T17:06:57;40.00;;;18.97;;
9722;SDS011;4900;49.306;8.500;2022-12-18T17:10:01;39.53;;;19.63;;
9722;SDS011;4900;49.306;8.500;2022-12-18T17:13:04;41.73;;;19.93;;
9722;SDS011;4900;49.306;8.500;2022-12-18T17:16:09;39.30;;;19.37;;
9722;SDS011;4900;49.306;8.500;2022-12-18T17:19:13;37.67;;;19.30;;
9722;SDS011;4900;49.306;8.500;2022-12-18T17:22:18;37.90;;;19.07;;
9722;SDS011;4900;49.306;8.500;2022-12-18T17:25:23;37.73;;;17.87;;
9722;SDS011;4900;49.306;8.500;2022-12-18T17:28:27;39.83;;;18.43;;
9722;SDS011;4900;49.306;8.500;2022-12-18T17:31:30;40.10;;;19.13;;
9722;SDS011;4900;49.306;8.500;2022-12-18T17:34:34;41.17;;;20.17;;
9722;SDS011;4900;49.306;8.500;2022-12-18T17:37:38;39.70;;;20.90;;
9722;SDS011;4900;49.306;8.500;2022-12-18T17:40:42;38.80;;;19.00;;
9722;SDS011;4900;49.306;8.500;2022-12-18T17:43:52;33.57;;;17.33;;
9722;SDS011;4900;49.306;8.500;2022-12-18T17:47:01;41.13;;;19.50;;
9722;SDS011;4900;49.306;8.500;2022-12-18T17:50:07;42.40;;;18.50;;
9722;SDS011;4900;49.306;8.500;2022-12-18T17:53:12;39.37;;;20.43;;
9722;SDS011;4900;49.306;8.500;2022-12-18T17:56:18;38.80;;;19.10;;
9722;SDS011;4900;49.306;8.500;2022-12-18T17:59:23;40.93;;;19.43;;
9722;SDS011;4900;49.306;8.500;2022-12-18T18:02:27;33.87;;;17.13;;
9722;SDS011;4900;49.306;8.500;2022-12-18T18:05:33;38.93;;;19.73;;
9722;SDS011;4900;49.306;8.500;2022-12-18T18:08:36;38.80;;;17.70;;
9722;SDS011;4900;49.306;8.500;2022-12-18T18:11:40;32.73;;;17.07;;
9722;SDS011;4900;49.306;8.500;2022-12-18T18:15:02;36.87;;;18.53;;
9722;SDS011;4900;49.306;8.500;2022-12-18T18:18:05;39.80;;;19.50;;
9722;SDS011;4900;49.306;8.500;2022-12-18T18:21:08;39.87;;;18.57;;
9722;SDS011;4900;49.306;8.500;2022-12-18T18:24:11;42.77;;;20.03;;
9722;SDS011;4900;49.306;8.500;2022-12-18T18:27:17;37.10;;;19.43;;
9722;SDS011;4900;49.306;8.500;2022-12-18T18:30:21;41.47;;;20.00;;
9722;SDS011;4900;49.306;8.500;2022-12-18T18:33:23;36.63;;;17.93;;
9722;SDS011;4900;49.306;8.500;2022-12-18T18:36:26;36.30;;;18.33;;
9722;SDS011;4900;49.306;8.500;2022-12-18T18:39:29;39.67;;;19.90;;
9722;SDS011;4900;49.306;8.500;2022-12-18T18:42:32;39.17;;;18.77;;
9722;SDS011;4900;49.306;8.500;2022-12-18T18:45:35;37.80;;;19.50;;
9722;SDS011;4900;49.306;8.500;2022-12-18T18:48:38;36.73;;;18.53;;
9722;SDS011;4900;49.306;8.500;2022-12-18T18:51:45;36.73;;;18.17;;
9722;SDS011;4900;49.306;8.500;2022-12-18T18:54:47;37.67;;;18.87;;
9722;SDS011;4900;49.306;8.500;2022-12-18T18:57:51;39.20;;;18.93;;
9722;SDS011;4900;49.306;8.500;2022-12-18T19:00:57;55.57;;;24.80;;
9722;SDS011;4900;49.306;8.500;2022-12-18T19:04:03;42.63;;;20.03;;
9722;SDS011;4900;49.306;8.500;2022-12-18T19:07:07;36.07;;;17.33;;
9722;SDS011;4900;49.306;8.500;2022-12-18T19:10:11;37.47;;;19.10;;
9722;SDS011;4900;49.306;8.500;2022-12-18T19:13:14;39.07;;;19.17;;
9722;SDS011;4900;49.306;8.500;2022-12-18T19:16:24;40.20;;;19.30;;
9722;SDS011;4900;49.306;8.500;2022-12-18T19:19:27;39.60;;;19.77;;
9722;SDS011;4900;49.306;8.500;2022-12-18T19:22:31;33.73;;;17.97;;
9722;SDS011;4900;49.306;8.500;2022-12-18T19:25:37;37.43;;;18.13;;
9722;SDS011;4900;49.306;8.500;2022-12-18T19:28:41;35.83;;;17.97;;
9722;SDS011;4900;49.306;8.500;2022-12-18T19:31:45;40.20;;;18.73;;
9722;SDS011;4900;49.306;8.500;2022-12-18T19:34:48;40.50;;;20.00;;
9722;SDS011;4900;49.306;8.500;2022-12-18T19:37:51;36.53;;;19.57;;
9722;SDS011;4900;49.306;8.500;2022-12-18T19:40:54;38.97;;;19.03;;
9722;SDS011;4900;49.306;8.500;2022-12-18T19:43:57;38.90;;;18.93;;
9722;SDS011;4900;49.306;8.500;2022-12-18T19:47:00;40.33;;;20.10;;
9722;SDS011;4900;49.306;8.500;2022-12-18T19:50:03;39.10;;;20.50;;
9722;SDS011;4900;49.306;8.500;2022-12-18T19:53:06;42.77;;;21.17;;
9722;SDS011;4900;49.306;8.500;2022-12-18T19:56:11;31.67;;;17.43;;
9722;SDS011;4900;49.306;8.500;2022-12-18T19:59:17;39.77;;;19.43;;
9722;SDS011;4900;49.306;8.500;2022-12-18T20:02:21;41.43;;;21.40;;
9722;SDS011;4900;49.306;8.500;2022-12-18T20:05:24;38.40;;;19.67;;
9722;SDS011;4900;49.306;8.500;2022-12-18T20:08:27;36.73;;;19.93;;
9722;SDS011;4900;49.306;8.500;2022-12-18T20:11:31;35.77;;;19.17;;
9722;SDS011;4900;49.306;8.500;2022-12-18T20:14:36;37.90;;;19.17;;
9722;SDS011;4900;49.306;8.500;2022-12-18T20:17:39;42.03;;;20.30;;
9722;SDS011;4900;49.306;8.500;2022-12-18T20:20:42;40.13;;;20.43;;
9722;SDS011;4900;49.306;8.500;2022-12-18T20:23:45;39.20;;;19.17;;
9722;SDS011;4900;49.306;8.500;2022-12-18T20:26:48;36.87;;;17.67;;
9722;SDS011;4900;49.306;8.500;2022-12-18T20:29:51;33.73;;;18.13;;